This is the latest recevied weather packets stored in our database for station/object K8RLH. If no packets are shown the sender has not sent any weather packets the latest 10 day(s).
| Time | Temp. | Humidity | Pressure | Rain* | Wind** | Luminosity | Snow |
|---|---|---|---|---|---|---|---|
| 1777986142 | 15.56° C | 76% | 1018.6 hPa | 0 mm | - | 37 W/m² | - |
| 1777985838 | 15° C | 76% | 1018.5 hPa | 0 mm | - | 110 W/m² | - |
| 1777985536 | 15° C | 76% | 1018.6 hPa | 0 mm | - | 35 W/m² | - |
| 1777985232 | 15° C | 76% | 1018.5 hPa | 0 mm | - | 34 W/m² | - |
| 1777984929 | 15° C | 75% | 1018.7 hPa | 0 mm | - | 39 W/m² | - |
| 1777984625 | 15° C | 75% | 1018.7 hPa | 0 mm | - | 35 W/m² | - |
| 1777984322 | 15° C | 74% | 1018.7 hPa | 0 mm | - | 35 W/m² | - |
| 1777984018 | 15.56° C | 72% | 1018.6 hPa | 0 mm | - | 147 W/m² | - |
| 1777983716 | 16.11° C | 71% | 1018.6 hPa | 0 mm | - | 120 W/m² | - |
| 1777983412 | 16.11° C | 70% | 1018.5 hPa | 0 mm | - | 138 W/m² | - |
| 1777983109 | 16.11° C | 70% | 1018.5 hPa | 0 mm | - | 125 W/m² | - |
| 1777982805 | 16.11° C | 71% | 1018.6 hPa | 0 mm | - | 111 W/m² | - |
| 1777982502 | 15.56° C | 72% | 1018.5 hPa | 0 mm | - | 98 W/m² | - |
| 1777982201 | 14.44° C | 76% | 1018.4 hPa | 0 mm | - | 86 W/m² | - |
| 1777981899 | 13.33° C | 82% | 1018.5 hPa | 0 mm | - | 75 W/m² | - |
| 1777981596 | 11.67° C | 88% | 1018.5 hPa | 0 mm | - | 65 W/m² | - |
| 1777981292 | 11.11° C | 89% | 1018.4 hPa | 0 mm | - | 52 W/m² | - |
| 1777980989 | 10.56° C | 89% | 1018.4 hPa | 0 mm | - | 32 W/m² | - |
| 1777980685 | 10.56° C | 90% | 1018.1 hPa | 0 mm | - | 20 W/m² | - |
| 1777980381 | 10.56° C | 90% | 1018 hPa | 0 mm | - | 21 W/m² | - |
| 1777980081 | 10° C | 90% | 1018.1 hPa | 0 mm | - | 17 W/m² | - |
| 1777979779 | 10° C | 90% | 1018.2 hPa | 0 mm | - | 15 W/m² | - |
| 1777979476 | 10° C | 89% | 1017.9 hPa | 0 mm | - | 13 W/m² | - |
| 1777979172 | 9.44° C | 89% | 1018.1 hPa | 0 mm | - | 11 W/m² | - |
| 1777978869 | 9.44° C | 89% | 1018.1 hPa | 0 mm | - | 9 W/m² | - |
* Rain latest hour (hover to see other rain measurements)
** Current wind speed in m/s (hover to see current wind gust speed)